Time;durP1;ratioP1;P1;durP2;ratioP2;P2;SDS_P1;SDS_P2;PMS_P1;PMS_P2;Temp;Humidity;BMP_temperature;BMP_pressure;BME280_temperature;BME280_humidity;BME280_pressure;Samples;Min_cycle;Max_cycle;Signal;HPM_P1;HPM_P2
2022/04/19 00:01:05;;;;;;;20.10;14.95;;;10.40;99.90;;;;;;5098489;28;20442;-72
2022/04/19 00:03:31;;;;;;;16.80;13.27;;;10.40;99.90;;;;;;5098164;28;20048;-72
2022/04/19 00:05:57;;;;;;;20.40;13.52;;;10.40;99.90;;;;;;5098619;28;20043;-71
2022/04/19 00:08:22;;;;;;;19.70;14.80;;;10.30;99.90;;;;;;5098126;28;20048;-72
2022/04/19 00:10:48;;;;;;;16.88;13.48;;;10.40;99.90;;;;;;5098142;28;20127;-71
2022/04/19 00:13:18;;;;;;;22.42;13.80;;;10.40;99.90;;;;;;5097964;28;20130;-71
2022/04/19 00:15:44;;;;;;;17.25;13.32;;;10.30;99.90;;;;;;5097941;28;20128;-72
2022/04/19 00:18:11;;;;;;;18.92;13.77;;;10.40;99.90;;;;;;5098203;28;20135;-73
2022/04/19 00:20:42;;;;;;;17.20;13.25;;;10.30;99.90;;;;;;5097969;28;20094;-73
2022/04/19 00:23:15;;;;;;;17.50;13.70;;;10.30;99.90;;;;;;5080068;28;20047;-73
2022/04/19 00:25:42;;;;;;;17.67;13.00;;;10.30;99.90;;;;;;5098071;28;20071;-72
2022/04/19 00:28:09;;;;;;;17.05;12.68;;;10.30;99.90;;;;;;5098003;28;20161;-74
2022/04/19 00:30:34;;;;;;;20.38;12.88;;;10.30;99.90;;;;;;5097614;28;20048;-71
2022/04/19 00:33:00;;;;;;;19.02;12.40;;;10.30;99.90;;;;;;5099758;28;20132;-72
2022/04/19 00:35:28;;;;;;;19.73;12.77;;;10.20;99.90;;;;;;5100450;28;20047;-73
2022/04/19 00:37:54;;;;;;;15.35;12.05;;;10.20;99.90;;;;;;5099571;28;20066;-71
2022/04/19 00:40:20;;;;;;;17.48;12.45;;;10.20;99.90;;;;;;5118195;28;20067;-72
2022/04/19 00:42:47;;;;;;;17.20;11.95;;;10.20;99.90;;;;;;5117717;28;20071;-71
2022/04/19 00:45:13;;;;;;;16.45;12.45;;;10.20;99.90;;;;;;5118130;28;20051;-73
2022/04/19 00:47:39;;;;;;;15.75;12.27;;;10.20;99.90;;;;;;5117493;28;20039;-72
2022/04/19 00:50:06;;;;;;;14.93;11.82;;;10.20;99.90;;;;;;5117610;28;20035;-72
2022/04/19 00:52:33;;;;;;;16.02;12.55;;;10.10;99.90;;;;;;5100192;28;20062;-73
2022/04/19 00:55:01;;;;;;;19.88;13.10;;;10.00;99.90;;;;;;5117809;28;20433;-72
2022/04/19 00:57:27;;;;;;;18.05;12.57;;;10.00;99.90;;;;;;5117847;28;20056;-72
2022/04/19 00:59:55;;;;;;;17.17;12.70;;;10.00;99.90;;;;;;5117835;28;20429;-73
2022/04/19 01:02:21;;;;;;;18.67;12.73;;;10.00;99.90;;;;;;5097767;28;20092;-74
2022/04/19 01:04:47;;;;;;;14.88;12.10;;;10.00;99.90;;;;;;5096960;28;20044;-74
2022/04/19 01:07:13;;;;;;;14.93;12.13;;;10.00;99.90;;;;;;5097119;28;20059;-73
2022/04/19 01:09:38;;;;;;;16.70;12.93;;;9.90;99.90;;;;;;5093660;28;20044;-73
2022/04/19 01:14:50;;;;;;;17.25;12.10;;;9.90;99.90;;;;;;5116718;28;20457;-72
2022/04/19 01:17:16;;;;;;;16.35;13.23;;;9.90;99.90;;;;;;5113956;28;20101;-72
2022/04/19 01:19:43;;;;;;;18.05;12.73;;;9.80;99.90;;;;;;5117381;28;20035;-72
2022/04/19 01:22:12;;;;;;;16.00;12.35;;;9.80;99.90;;;;;;5117170;28;20036;-72
2022/04/19 01:24:39;;;;;;;16.92;12.98;;;9.80;99.90;;;;;;5117475;28;20039;-72
2022/04/19 01:27:05;;;;;;;16.35;12.45;;;9.80;99.90;;;;;;5117416;28;20035;-71
2022/04/19 01:29:33;;;;;;;17.70;12.82;;;9.80;99.90;;;;;;5117668;28;20039;-74
2022/04/19 01:32:00;;;;;;;17.35;13.48;;;9.70;99.90;;;;;;5116149;28;20043;-72
2022/04/19 01:34:27;;;;;;;18.92;12.65;;;9.80;99.90;;;;;;5117412;28;20080;-71
2022/04/19 01:36:52;;;;;;;17.00;12.48;;;9.70;99.90;;;;;;5115128;28;20051;-72
2022/04/19 01:40:16;;;;;;;18.90;12.95;;;9.70;99.90;;;;;;5116773;28;20444;-73
2022/04/19 01:42:05;;;;;;;16.40;11.88;;;9.70;99.90;;;;;;5116158;28;20059;-72
2022/04/19 01:44:33;;;;;;;16.15;12.38;;;9.70;99.90;;;;;;5099092;28;20399;-72
2022/04/19 01:47:02;;;;;;;16.77;12.20;;;9.70;99.90;;;;;;5116340;28;20046;-71
2022/04/19 01:49:28;;;;;;;15.35;11.32;;;9.70;99.90;;;;;;5115488;28;20397;-72
2022/04/19 01:51:53;;;;;;;13.95;11.73;;;9.70;99.90;;;;;;5116194;28;20131;-72
2022/04/19 01:54:19;;;;;;;19.42;12.70;;;9.60;99.90;;;;;;5116332;28;20039;-71
2022/04/19 01:56:44;;;;;;;15.48;11.43;;;9.60;99.90;;;;;;5098493;28;20096;-73
2022/04/19 01:59:11;;;;;;;16.90;11.82;;;9.50;99.90;;;;;;5116478;28;20035;-71
2022/04/19 02:01:37;;;;;;;16.70;12.88;;;9.50;99.90;;;;;;5114925;28;20119;-73
2022/04/19 02:04:03;;;;;;;16.45;12.23;;;9.50;99.90;;;;;;5116031;28;20131;-73
2022/04/19 02:06:30;;;;;;;15.63;12.05;;;9.50;99.90;;;;;;5115844;28;20054;-72
2022/04/19 02:08:56;;;;;;;17.00;12.70;;;9.50;99.90;;;;;;5116243;28;20401;-72
2022/04/19 02:11:21;;;;;;;13.80;11.57;;;9.40;99.90;;;;;;5115891;28;20071;-72
2022/04/19 02:13:47;;;;;;;17.83;13.38;;;9.40;99.90;;;;;;5115317;28;20054;-72
2022/04/19 02:16:12;;;;;;;15.63;12.18;;;9.40;99.90;;;;;;5116025;28;20059;-73
2022/04/19 02:18:38;;;;;;;19.27;12.45;;;9.40;99.90;;;;;;5114213;28;20058;-72
2022/04/19 02:21:03;;;;;;;14.80;11.98;;;9.40;99.90;;;;;;5116410;28;20126;-72
2022/04/19 02:23:29;;;;;;;16.75;12.68;;;9.30;99.90;;;;;;5115951;28;20055;-74
2022/04/19 02:25:55;;;;;;;15.02;12.32;;;9.30;99.90;;;;;;5115634;28;20035;-72
2022/04/19 02:28:22;;;;;;;20.77;12.80;;;9.30;99.90;;;;;;5116115;28;20039;-72
2022/04/19 02:30:48;;;;;;;16.60;11.70;;;9.20;99.90;;;;;;5115819;28;20031;-72
2022/04/19 02:33:13;;;;;;;14.65;12.13;;;9.20;99.90;;;;;;5115553;28;20114;-73
2022/04/19 02:35:39;;;;;;;18.00;13.80;;;9.20;99.90;;;;;;5115865;28;20123;-72
2022/04/19 02:38:05;;;;;;;13.73;11.52;;;9.20;99.90;;;;;;5115680;28;20385;-72
2022/04/19 02:40:31;;;;;;;17.05;12.38;;;9.10;99.90;;;;;;5115406;28;20039;-72
2022/04/19 02:42:57;;;;;;;16.48;12.07;;;9.10;99.90;;;;;;5115839;28;20039;-72
2022/04/19 02:45:23;;;;;;;17.63;12.52;;;9.10;99.90;;;;;;5115180;28;20381;-71
2022/04/19 02:48:01;;;;;;;16.38;12.65;;;9.10;99.90;;;;;;5115798;28;20043;-72
2022/04/19 02:50:27;;;;;;;17.25;12.10;;;9.00;99.90;;;;;;5115644;28;20091;-72
2022/04/19 02:52:52;;;;;;;17.55;12.68;;;9.00;99.90;;;;;;5115682;28;20087;-72
2022/04/19 02:55:18;;;;;;;15.38;12.43;;;9.00;99.90;;;;;;5115573;28;20083;-73
2022/04/19 02:57:44;;;;;;;17.25;11.90;;;8.90;99.90;;;;;;5115161;28;20079;-73
2022/04/19 03:00:10;;;;;;;15.70;12.25;;;8.90;99.90;;;;;;5115227;28;20031;-73
2022/04/19 03:02:35;;;;;;;16.20;13.85;;;8.80;99.90;;;;;;5114101;28;20043;-73
2022/04/19 03:05:01;;;;;;;14.95;12.63;;;8.80;99.90;;;;;;5114950;28;20057;-72
2022/04/19 03:07:26;;;;;;;14.80;12.23;;;8.70;99.90;;;;;;5114885;28;20087;-73
2022/04/19 03:09:52;;;;;;;16.35;13.05;;;8.70;99.90;;;;;;5115588;28;20048;-73
2022/04/19 03:12:17;;;;;;;15.50;12.73;;;8.60;99.90;;;;;;5115531;28;20039;-72
2022/04/19 03:14:43;;;;;;;15.52;12.63;;;8.60;99.90;;;;;;5114560;28;20475;-72
2022/04/19 03:17:09;;;;;;;15.30;12.25;;;8.50;99.90;;;;;;5113530;28;20035;-73
2022/04/19 03:19:34;;;;;;;16.70;12.82;;;8.50;99.90;;;;;;5115064;28;20048;-74
2022/04/19 03:22:00;;;;;;;16.48;12.70;;;8.40;99.90;;;;;;5114906;28;20040;-72
2022/04/19 03:29:54;;;;;;;18.37;13.27;;;8.40;99.90;;;;;;5115090;28;20043;-72
2022/04/19 03:32:19;;;;;;;17.42;12.85;;;8.40;99.90;;;;;;5115060;28;20044;-71
2022/04/19 03:34:49;;;;;;;15.85;11.98;;;8.40;99.90;;;;;;5114998;28;20070;-72
2022/04/19 03:37:15;;;;;;;15.73;11.50;;;8.50;99.90;;;;;;5115286;28;20039;-72
2022/04/19 03:39:41;;;;;;;15.13;12.30;;;8.50;99.90;;;;;;5114870;28;20448;-71
2022/04/19 03:42:07;;;;;;;16.38;12.75;;;8.50;99.90;;;;;;5115138;28;20040;-71
2022/04/19 03:44:33;;;;;;;17.25;12.30;;;8.50;99.90;;;;;;5114737;28;20122;-74
2022/04/19 03:47:07;;;;;;;16.67;12.85;;;8.50;99.90;;;;;;5114457;28;20118;-73
2022/04/19 03:49:34;;;;;;;;;;;8.50;99.90;;;;;;5115389;28;20357;-73
2022/04/19 03:52:00;;;;;;;16.60;11.38;;;8.60;99.90;;;;;;5114890;28;19998;-72
2022/04/19 03:54:26;;;;;;;16.20;12.48;;;8.60;99.90;;;;;;5114832;28;20039;-72
2022/04/19 03:56:51;;;;;;;15.20;12.70;;;8.60;99.90;;;;;;5114822;28;20123;-70
2022/04/19 03:59:17;;;;;;;16.65;12.55;;;8.60;99.90;;;;;;5113575;28;20042;-70
2022/04/19 04:01:42;;;;;;;15.25;12.20;;;8.60;99.90;;;;;;5113997;28;20142;-71
2022/04/19 04:04:08;;;;;;;16.45;12.52;;;8.60;99.90;;;;;;5114373;28;20071;-71
2022/04/19 04:06:37;;;;;;;19.63;12.75;;;8.60;99.90;;;;;;5114933;28;20123;-72
2022/04/19 04:09:04;;;;;;;21.80;14.48;;;8.60;99.90;;;;;;5114478;28;20054;-72
2022/04/19 04:11:29;;;;;;;17.58;13.10;;;8.60;99.90;;;;;;5114782;28;20047;-73
2022/04/19 04:13:55;;;;;;;20.13;14.30;;;8.60;99.90;;;;;;5117517;28;20040;-74
2022/04/19 04:16:21;;;;;;;17.45;13.55;;;8.60;99.90;;;;;;5118346;28;20046;-72
2022/04/19 04:18:46;;;;;;;22.25;15.10;;;8.60;99.90;;;;;;5118372;28;20399;-71
2022/04/19 04:21:12;;;;;;;22.15;15.18;;;8.50;99.90;;;;;;5117335;28;20054;-72
2022/04/19 04:23:37;;;;;;;23.67;15.88;;;8.50;99.90;;;;;;5118105;28;20038;-72
2022/04/19 04:26:03;;;;;;;18.52;14.13;;;8.60;99.90;;;;;;5118347;28;20079;-73
2022/04/19 04:28:28;;;;;;;19.20;14.85;;;8.50;99.90;;;;;;5117943;28;20048;-72
2022/04/19 04:30:54;;;;;;;20.42;15.00;;;8.50;99.90;;;;;;5117654;28;20457;-72
2022/04/19 04:33:19;;;;;;;24.02;16.45;;;8.60;99.90;;;;;;5118094;28;20040;-74
2022/04/19 04:35:45;;;;;;;22.83;15.77;;;8.60;99.90;;;;;;5118010;28;20520;-71
2022/04/19 04:38:10;;;;;;;21.85;15.60;;;8.60;99.90;;;;;;5117964;28;20054;-73
2022/04/19 04:40:36;;;;;;;19.17;15.15;;;8.60;99.90;;;;;;5117766;28;20502;-72
2022/04/19 04:43:02;;;;;;;20.40;14.75;;;8.60;99.90;;;;;;5118163;28;20082;-73
2022/04/19 04:45:27;;;;;;;22.52;14.77;;;8.60;99.90;;;;;;5117598;28;20085;-71
2022/04/19 04:50:37;;;;;;;22.85;13.93;;;8.60;99.90;;;;;;5117869;28;20043;-72
2022/04/19 04:53:03;;;;;;;22.25;14.43;;;8.60;99.90;;;;;;5117407;28;20065;-72
2022/04/19 04:55:29;;;;;;;22.63;14.75;;;8.60;99.90;;;;;;5117960;28;20345;-71
2022/04/19 04:58:01;;;;;;;18.33;13.73;;;8.60;99.90;;;;;;5117340;28;20100;-72
2022/04/19 05:00:27;;;;;;;19.77;14.15;;;8.60;99.90;;;;;;5117572;28;20062;-71
2022/04/19 05:02:53;;;;;;;20.10;15.02;;;8.60;99.90;;;;;;5117391;28;20028;-74
2022/04/19 05:05:19;;;;;;;20.00;13.10;;;8.60;99.90;;;;;;5117219;28;20121;-71
2022/04/19 05:07:44;;;;;;;21.27;14.73;;;8.70;99.90;;;;;;5117650;28;20445;-73
2022/04/19 05:10:10;;;;;;;18.00;13.77;;;8.70;99.90;;;;;;5117723;28;20044;-74
2022/04/19 05:12:36;;;;;;;25.80;14.45;;;8.70;99.90;;;;;;5116806;28;20051;-73
2022/04/19 05:15:02;;;;;;;19.77;14.43;;;8.80;99.90;;;;;;5116991;28;20036;-72
2022/04/19 05:17:29;;;;;;;19.13;13.70;;;8.80;99.90;;;;;;5113852;28;20054;-71
2022/04/19 05:19:55;;;;;;;16.05;12.55;;;8.80;99.90;;;;;;5116979;28;20096;-70
2022/04/19 05:22:21;;;;;;;18.88;14.02;;;8.80;99.90;;;;;;5113931;28;20032;-71
2022/04/19 05:24:46;;;;;;;19.30;13.38;;;8.90;99.90;;;;;;5116309;28;20036;-70
2022/04/19 05:27:12;;;;;;;18.95;14.38;;;8.90;99.90;;;;;;5115854;28;20112;-71
2022/04/19 05:29:37;;;;;;;18.73;14.07;;;8.90;99.90;;;;;;5116605;28;20463;-71
2022/04/19 05:32:04;;;;;;;16.85;12.98;;;8.90;99.90;;;;;;5109165;28;20044;-72
2022/04/19 05:34:29;;;;;;;20.30;12.52;;;8.90;99.90;;;;;;5112484;28;20036;-70
2022/04/19 05:36:55;;;;;;;18.08;12.93;;;9.00;99.90;;;;;;5096285;28;20093;-71
2022/04/19 05:39:20;;;;;;;20.70;14.63;;;9.00;99.90;;;;;;5102405;28;20048;-74
2022/04/19 05:41:46;;;;;;;18.98;13.75;;;9.10;99.90;;;;;;5116175;28;20361;-73
2022/04/19 05:44:12;;;;;;;19.27;12.88;;;9.10;99.90;;;;;;5115691;28;20379;-74
2022/04/19 05:46:37;;;;;;;17.92;13.10;;;9.10;99.90;;;;;;5116404;28;20040;-73
2022/04/19 05:49:06;;;;;;;18.70;12.93;;;9.20;99.90;;;;;;5116568;28;20053;-75
2022/04/19 05:51:33;;;;;;;18.83;12.55;;;9.30;99.90;;;;;;5115964;28;20043;-75
2022/04/19 05:53:58;;;;;;;20.83;12.95;;;9.30;99.90;;;;;;5115987;28;20059;-72
2022/04/19 05:56:24;;;;;;;18.85;12.25;;;9.30;99.90;;;;;;5115014;28;20375;-74
2022/04/19 05:58:49;;;;;;;19.23;12.65;;;9.40;99.90;;;;;;5116383;28;20115;-74
2022/04/19 06:01:15;;;;;;;17.65;12.38;;;9.40;99.90;;;;;;5116324;28;20579;-74
2022/04/19 06:06:25;;;;;;;16.60;12.33;;;9.60;99.90;;;;;;5114386;28;20138;-74
2022/04/19 06:08:50;;;;;;;17.90;13.18;;;9.60;99.90;;;;;;5116193;28;20372;-74
2022/04/19 06:11:16;;;;;;;18.05;13.07;;;9.70;99.90;;;;;;5115547;28;20039;-75
2022/04/19 06:13:42;;;;;;;16.65;12.13;;;9.70;99.90;;;;;;5116115;28;20031;-73
2022/04/19 06:16:08;;;;;;;16.05;12.15;;;9.80;99.90;;;;;;5115186;28;20096;-73
2022/04/19 06:18:34;;;;;;;16.83;12.85;;;9.80;99.90;;;;;;5115054;28;20058;-73
2022/04/19 06:20:59;;;;;;;17.65;12.95;;;9.90;99.90;;;;;;5110769;28;20059;-72
2022/04/19 06:23:25;;;;;;;17.55;13.02;;;9.90;99.90;;;;;;5094577;28;20519;-73
2022/04/19 06:25:51;;;;;;;15.48;12.43;;;10.00;99.90;;;;;;5095604;28;20115;-75
2022/04/19 06:28:17;;;;;;;17.50;12.27;;;10.10;99.90;;;;;;5095416;28;20036;-73
2022/04/19 06:30:43;;;;;;;18.75;14.18;;;10.20;99.90;;;;;;5095292;28;20188;-73
2022/04/19 06:33:09;;;;;;;16.95;13.48;;;10.20;99.90;;;;;;5095652;28;20062;-72
2022/04/19 06:35:34;;;;;;;23.10;14.30;;;10.30;99.90;;;;;;5099130;28;20495;-74
2022/04/19 06:38:00;;;;;;;18.85;13.15;;;10.40;99.90;;;;;;5115543;28;20040;-74
2022/04/19 06:40:25;;;;;;;16.40;12.88;;;10.50;99.90;;;;;;5115834;28;20043;-73
2022/04/19 06:42:51;;;;;;;17.63;12.80;;;10.60;99.90;;;;;;5115515;28;20039;-73
2022/04/19 06:45:18;;;;;;;18.02;12.88;;;10.70;99.90;;;;;;5115598;28;20046;-73
2022/04/19 06:47:44;;;;;;;16.40;11.85;;;10.80;99.90;;;;;;5115592;28;20058;-75
2022/04/19 06:50:10;;;;;;;17.48;11.88;;;10.90;99.90;;;;;;5111809;28;20043;-72
2022/04/19 06:52:36;;;;;;;15.35;11.45;;;11.10;99.90;;;;;;5093763;28;20100;-74
2022/04/19 06:55:03;;;;;;;18.60;12.35;;;11.20;99.90;;;;;;5093829;28;20044;-74
2022/04/19 06:57:29;;;;;;;15.93;12.23;;;11.30;99.90;;;;;;5095102;28;20441;-73
2022/04/19 06:59:54;;;;;;;17.08;12.88;;;11.40;99.90;;;;;;5095448;28;20066;-74
2022/04/19 07:02:20;;;;;;;16.70;12.52;;;11.50;99.90;;;;;;5094962;28;20438;-75
2022/04/19 07:04:45;;;;;;;19.95;14.45;;;11.60;99.90;;;;;;5095987;28;20046;-72
2022/04/19 07:07:11;;;;;;;17.33;13.30;;;11.70;99.90;;;;;;5115251;28;20036;-75
2022/04/19 07:09:38;;;;;;;18.83;12.95;;;11.80;99.90;;;;;;5115274;28;20423;-74
2022/04/19 07:12:04;;;;;;;18.30;13.85;;;11.80;99.90;;;;;;5114956;28;20464;-74
2022/04/19 07:14:30;;;;;;;18.55;13.57;;;11.90;99.90;;;;;;5115294;28;20461;-74
2022/04/19 07:16:58;;;;;;;18.05;13.02;;;12.00;99.90;;;;;;5115352;28;20051;-75
2022/04/19 07:19:24;;;;;;;17.35;13.43;;;12.10;99.90;;;;;;5115071;28;20051;-75
2022/04/19 07:27:21;;;;;;;18.42;12.27;;;12.20;99.90;;;;;;5097871;28;20062;-75
2022/04/19 07:29:47;;;;;;;16.60;11.80;;;12.40;99.90;;;;;;5115118;28;20057;-75
2022/04/19 07:32:12;;;;;;;16.58;12.13;;;12.50;99.90;;;;;;5096999;28;20509;-75
2022/04/19 07:34:38;;;;;;;16.05;11.73;;;12.50;99.90;;;;;;5077816;28;20044;-75
2022/04/19 07:37:04;;;;;;;17.65;11.93;;;12.60;99.90;;;;;;5094751;28;20079;-73
2022/04/19 07:39:29;;;;;;;15.05;11.60;;;12.60;99.90;;;;;;5074293;28;20055;-75
2022/04/19 07:41:55;;;;;;;15.88;11.40;;;12.70;99.90;;;;;;5094655;28;20434;-75
2022/04/19 07:44:22;;;;;;;18.25;11.98;;;12.80;99.90;;;;;;5094589;28;20040;-74
2022/04/19 07:46:50;;;;;;;14.55;11.15;;;12.80;99.90;;;;;;5076949;28;20051;-75
2022/04/19 07:49:16;;;;;;;15.85;11.10;;;12.90;99.90;;;;;;5097773;28;20047;-75
2022/04/19 07:51:43;;;;;;;14.32;11.75;;;13.00;99.90;;;;;;5098595;28;20047;-75
2022/04/19 07:54:08;;;;;;;15.57;11.10;;;13.00;99.90;;;;;;5099066;28;20472;-74
2022/04/19 07:56:34;;;;;;;16.80;11.68;;;13.10;99.90;;;;;;5098272;28;20075;-74
2022/04/19 07:59:00;;;;;;;15.50;11.35;;;13.10;99.90;;;;;;5098429;28;20043;-73
2022/04/19 08:01:26;;;;;;;15.75;11.25;;;13.10;99.90;;;;;;5098380;28;20036;-74
2022/04/19 08:03:51;;;;;;;14.57;10.30;;;13.10;99.90;;;;;;5098451;28;20047;-73
2022/04/19 08:06:18;;;;;;;16.15;10.88;;;13.20;99.90;;;;;;5091931;28;20454;-74
2022/04/19 08:08:43;;;;;;;14.20;10.68;;;13.20;99.90;;;;;;5103876;28;20118;-75
2022/04/19 08:11:09;;;;;;;15.85;10.88;;;13.30;99.90;;;;;;5118894;28;20176;-75
2022/04/19 08:13:35;;;;;;;14.88;11.05;;;13.30;99.90;;;;;;5118732;28;20040;-75
2022/04/19 08:16:00;;;;;;;14.98;10.27;;;13.40;99.90;;;;;;5117378;28;20195;-73
2022/04/19 08:18:26;;;;;;;12.95;9.13;;;13.40;99.90;;;;;;5083645;28;20040;-75
2022/04/19 08:20:52;;;;;;;15.50;11.23;;;13.50;99.90;;;;;;5097287;28;20109;-74
2022/04/19 08:23:18;;;;;;;14.38;10.77;;;13.50;99.90;;;;;;5098209;28;20044;-77
2022/04/19 08:25:44;;;;;;;13.32;10.00;;;13.50;99.90;;;;;;5097847;28;20046;-74
2022/04/19 08:28:10;;;;;;;13.00;9.80;;;13.50;99.90;;;;;;5097590;28;20487;-74
2022/04/19 08:30:35;;;;;;;14.55;9.98;;;13.60;99.90;;;;;;5106192;28;20051;-76
2022/04/19 08:33:01;;;;;;;13.00;9.80;;;13.60;99.90;;;;;;5118123;28;20096;-73
2022/04/19 08:35:27;;;;;;;16.65;10.18;;;13.60;99.90;;;;;;5119070;28;20357;-75
2022/04/19 08:37:53;;;;;;;13.18;9.45;;;13.60;99.90;;;;;;5105724;28;20044;-76
2022/04/19 08:40:19;;;;;;;12.95;9.27;;;13.60;99.90;;;;;;5096467;28;20039;-74
2022/04/19 08:42:46;;;;;;;13.90;9.10;;;13.70;99.90;;;;;;5096892;28;20040;-75
2022/04/19 08:45:15;;;;;;;12.15;7.85;;;13.70;99.90;;;;;;5097140;28;20072;-75
2022/04/19 08:47:45;;;;;;;14.77;9.05;;;13.70;99.90;;;;;;5097139;28;20040;-76
2022/04/19 08:50:13;;;;;;;14.88;7.90;;;13.70;99.90;;;;;;5097270;28;20458;-75
2022/04/19 08:52:39;;;;;;;10.13;7.43;;;13.70;99.90;;;;;;5097354;28;20040;-75
2022/04/19 08:57:50;;;;;;;13.02;7.78;;;13.80;99.90;;;;;;5096366;28;20350;-75
2022/04/19 09:00:17;;;;;;;10.52;6.78;;;13.90;99.90;;;;;;5096877;28;20040;-75
2022/04/19 09:02:43;;;;;;;12.07;6.97;;;13.90;99.90;;;;;;5097196;28;20252;-73
2022/04/19 09:05:18;;;;;;;10.52;6.72;;;13.90;99.90;;;;;;5097078;28;20144;-76
2022/04/19 09:07:45;;;;;;;12.10;6.38;;;14.00;99.90;;;;;;5115323;28;20083;-74
2022/04/19 09:10:14;;;;;;;10.18;7.30;;;14.00;99.90;;;;;;5099877;28;20044;-76
2022/04/19 09:13:04;;;;;;;8.65;6.93;;;14.10;99.90;;;;;;5097892;28;20059;-75
2022/04/19 09:15:43;;;;;;;12.10;7.15;;;14.20;99.90;;;;;;5116942;28;20453;-75
2022/04/19 09:18:20;;;;;;;11.27;6.68;;;14.20;99.90;;;;;;5099594;28;20035;-78
2022/04/19 09:20:53;;;;;;;10.88;7.28;;;14.30;99.90;;;;;;5098954;28;20055;-74
2022/04/19 09:23:19;;;;;;;9.35;6.30;;;14.30;99.90;;;;;;5117155;28;20051;-76
2022/04/19 09:25:45;;;;;;;9.05;6.60;;;14.30;99.90;;;;;;5113329;28;20339;-74
2022/04/19 09:28:21;;;;;;;11.63;5.95;;;14.40;99.90;;;;;;5096875;28;20078;-77
2022/04/19 09:30:51;;;;;;;8.73;6.07;;;14.40;99.90;;;;;;5096554;28;20036;-76
2022/04/19 09:33:20;;;;;;;7.13;5.20;;;14.50;99.90;;;;;;5096611;28;20036;-76
2022/04/19 09:36:02;;;;;;;9.25;6.25;;;14.50;99.90;;;;;;5078604;28;20040;-79
2022/04/19 09:38:49;;;;;;;11.30;6.47;;;14.60;99.90;;;;;;5078731;28;20112;-73
2022/04/19 09:41:29;;;;;;;8.25;5.25;;;14.60;99.90;;;;;;5106539;28;20449;-78
2022/04/19 09:44:24;;;;;;;7.68;5.40;;;14.60;99.90;;;;;;5116773;28;20048;-74
2022/04/19 09:47:04;;;;;;;11.80;6.85;;;14.70;99.90;;;;;;5081966;28;20059;-74
2022/04/19 09:49:49;;;;;;;8.13;6.03;;;14.70;99.90;;;;;;5098947;28;20058;-74
2022/04/19 09:52:38;;;;;;;12.73;6.32;;;14.80;99.90;;;;;;5116269;28;20071;-73
2022/04/19 09:55:05;;;;;;;9.60;6.10;;;14.90;99.90;;;;;;5113956;28;20453;-76
2022/04/19 09:57:32;;;;;;;10.68;6.78;;;14.90;99.90;;;;;;5095949;28;20119;-75
2022/04/19 09:59:59;;;;;;;11.35;5.88;;;14.90;99.90;;;;;;5095552;28;20097;-74
2022/04/19 10:08:13;;;;;;;9.57;4.87;;;14.90;99.90;;;;;;5078265;28;19916;-74
2022/04/19 10:10:40;;;;;;;8.35;4.32;;;14.90;99.90;;;;;;5112984;28;20039;-75
2022/04/19 10:13:06;;;;;;;5.13;3.92;;;15.00;99.90;;;;;;5117191;28;20036;-74
2022/04/19 10:15:33;;;;;;;4.43;3.10;;;15.00;99.90;;;;;;5117474;28;20054;-73
2022/04/19 10:17:59;;;;;;;6.57;3.15;;;15.00;99.90;;;;;;5117291;28;20444;-75
2022/04/19 10:20:31;;;;;;;3.38;2.88;;;15.00;99.90;;;;;;5098932;28;20050;-75
2022/04/19 10:23:01;;;;;;;4.97;3.08;;;15.10;99.90;;;;;;5117575;28;20043;-75
2022/04/19 10:25:44;;;;;;;3.35;2.70;;;15.10;99.90;;;;;;5079407;28;20051;-76
2022/04/19 10:28:30;;;;;;;3.67;2.80;;;15.10;99.90;;;;;;5095317;28;20032;-75
2022/04/19 10:30:57;;;;;;;4.03;2.50;;;15.20;99.90;;;;;;5095526;28;20105;-76
2022/04/19 10:33:38;;;;;;;3.90;2.08;;;15.20;99.90;;;;;;5095616;28;20063;-74
2022/04/19 10:36:19;;;;;;;2.60;1.98;;;15.20;99.90;;;;;;5095219;28;20055;-75
2022/04/19 10:39:06;;;;;;;4.60;2.50;;;15.20;99.80;;;;;;5083530;28;20124;-75
2022/04/19 10:41:45;;;;;;;2.58;1.80;;;15.20;99.90;;;;;;5115646;28;20149;-73
2022/04/19 10:44:30;;;;;;;4.53;2.78;;;15.20;99.90;;;;;;5097778;28;20047;-76
2022/04/19 10:47:20;;;;;;;3.85;1.88;;;15.20;99.90;;;;;;5115489;28;20395;-75
2022/04/19 10:49:58;;;;;;;3.25;2.53;;;15.30;98.90;;;;;;5105624;28;20358;-73
2022/04/19 10:52:44;;;;;;;3.00;2.30;;;15.40;95.80;;;;;;5115741;28;20079;-77
2022/04/19 10:55:19;;;;;;;5.05;2.60;;;15.40;95.60;;;;;;5115483;28;20120;-76
2022/04/19 10:58:07;;;;;;;3.97;2.80;;;15.30;97.10;;;;;;5115521;28;20039;-73
2022/04/19 11:00:41;;;;;;;3.67;2.50;;;15.40;98.10;;;;;;5114574;28;20055;-75
2022/04/19 11:03:10;;;;;;;3.22;1.90;;;15.50;96.70;;;;;;5081774;28;20047;-73
2022/04/19 11:05:52;;;;;;;2.00;1.70;;;15.50;97.40;;;;;;5094903;28;20052;-76
2022/04/19 11:08:20;;;;;;;2.55;1.65;;;15.60;96.60;;;;;;5077421;28;20099;-73
2022/04/19 11:10:47;;;;;;;5.72;2.00;;;15.60;96.70;;;;;;5094508;28;20453;-74
2022/04/19 11:13:12;;;;;;;5.43;2.25;;;15.70;96.80;;;;;;5094779;28;20040;-77
2022/04/19 11:15:38;;;;;;;4.13;2.20;;;15.70;96.70;;;;;;5094722;28;20341;-74
2022/04/19 11:18:23;;;;;;;2.40;2.08;;;15.80;97.00;;;;;;5091626;28;20040;-74
2022/04/19 11:20:50;;;;;;;8.52;2.42;;;15.80;97.30;;;;;;5094825;28;20458;-75
2022/04/19 11:23:22;;;;;;;3.83;2.90;;;15.90;97.30;;;;;;5098517;28;20466;-74
2022/04/19 11:25:49;;;;;;;4.35;2.78;;;15.90;96.60;;;;;;5098862;28;20109;-77
2022/04/19 11:28:19;;;;;;;4.05;2.80;;;16.00;96.60;;;;;;5098903;28;20403;-73
2022/04/19 11:30:56;;;;;;;5.40;2.35;;;16.00;96.10;;;;;;5099626;28;20097;-73
2022/04/19 11:33:33;;;;;;;3.25;2.70;;;16.10;95.40;;;;;;5119402;28;20035;-74
2022/04/19 11:36:02;;;;;;;4.00;2.85;;;16.10;96.30;;;;;;5116190;28;20035;-75
2022/04/19 11:38:29;;;;;;;3.47;2.50;;;16.20;96.70;;;;;;5118778;28;20361;-74
2022/04/19 11:49:09;;;;;;;5.18;2.60;;;16.30;97.30;;;;;;5098696;28;20056;-76
2022/04/19 11:51:36;;;;;;;6.70;2.97;;;16.40;97.50;;;;;;5098567;28;20040;-77
2022/04/19 11:54:05;;;;;;;6.00;3.10;;;16.60;97.50;;;;;;5098556;28;20040;-75
2022/04/19 11:56:32;;;;;;;3.85;2.75;;;16.60;97.70;;;;;;5080645;28;20044;-74
2022/04/19 11:59:00;;;;;;;3.63;2.40;;;16.60;97.70;;;;;;5080509;28;20109;-74
2022/04/19 12:01:26;;;;;;;3.20;2.70;;;16.70;97.00;;;;;;5091121;28;20054;-74
2022/04/19 12:03:52;;;;;;;8.73;2.92;;;16.70;96.40;;;;;;5118824;28;20071;-74
2022/04/19 12:06:20;;;;;;;4.40;2.58;;;16.70;96.90;;;;;;5118810;28;20104;-73
2022/04/19 12:08:46;;;;;;;4.55;2.70;;;16.70;95.40;;;;;;5117399;28;20126;-76
2022/04/19 12:11:16;;;;;;;3.20;2.70;;;16.80;96.30;;;;;;5118217;28;20181;-75
2022/04/19 12:13:44;;;;;;;5.00;3.30;;;16.80;96.10;;;;;;5118290;28;20040;-74
2022/04/19 12:16:37;;;;;;;6.78;3.00;;;16.90;96.40;;;;;;5117121;28;20106;-75
2022/04/19 12:19:12;;;;;;;7.05;3.65;;;16.90;95.60;;;;;;5116104;28;20121;-75
2022/04/19 12:21:46;;;;;;;5.28;2.90;;;17.00;96.30;;;;;;5118413;28;20075;-77
2022/04/19 12:24:21;;;;;;;3.83;2.72;;;17.00;96.50;;;;;;5117749;28;20039;-77
2022/04/19 12:27:07;;;;;;;5.22;3.53;;;17.30;96.50;;;;;;5117427;28;20074;-76
2022/04/19 12:29:34;;;;;;;6.88;3.47;;;17.40;96.70;;;;;;5115154;28;20094;-75
2022/04/19 12:32:00;;;;;;;7.50;3.72;;;17.40;97.00;;;;;;5096520;28;20069;-74
2022/04/19 12:34:37;;;;;;;6.40;3.40;;;17.60;97.00;;;;;;5079484;28;20465;-74
2022/04/19 12:37:12;;;;;;;6.60;3.38;;;17.70;96.60;;;;;;5098072;28;20032;-73
2022/04/19 12:39:39;;;;;;;4.95;3.42;;;17.80;96.40;;;;;;5098012;28;20039;-77
2022/04/19 12:42:07;;;;;;;5.50;2.72;;;17.90;96.80;;;;;;5097534;28;20047;-74
2022/04/19 12:44:35;;;;;;;5.20;3.67;;;18.10;96.90;;;;;;5102029;28;20112;-74
2022/04/19 12:47:04;;;;;;;6.13;4.20;;;18.30;96.90;;;;;;5116864;28;20035;-76
2022/04/19 12:49:31;;;;;;;4.28;3.67;;;18.40;96.70;;;;;;5117832;28;20163;-77
2022/04/19 12:51:57;;;;;;;4.13;3.30;;;18.70;96.40;;;;;;5117158;28;20044;-74
2022/04/19 12:54:26;;;;;;;4.47;3.35;;;18.90;96.50;;;;;;5117438;28;20486;-76
2022/04/19 12:57:24;;;;;;;4.85;3.83;;;19.30;96.30;;;;;;5116343;28;20081;-74
2022/04/19 12:59:50;;;;;;;5.10;3.63;;;19.70;95.40;;;;;;5095771;28;20436;-75
2022/04/19 13:02:20;;;;;;;4.38;3.60;;;20.30;96.60;;;;;;5097744;28;20127;-73
2022/04/19 13:04:47;;;;;;;6.22;3.58;;;20.70;95.60;;;;;;5096845;28;20434;-75
2022/04/19 13:12:43;;;;;;;6.00;3.58;;;22.30;93.90;;;;;;5117289;28;20419;-76
2022/04/19 13:15:09;;;;;;;3.78;3.30;;;22.90;92.80;;;;;;5099557;28;20051;-76
2022/04/19 13:17:37;;;;;;;4.93;3.78;;;23.40;91.80;;;;;;5117022;28;20339;-77
2022/04/19 13:20:04;;;;;;;5.82;3.50;;;23.60;90.50;;;;;;5086243;28;20048;-75
2022/04/19 13:22:30;;;;;;;6.85;3.78;;;24.20;90.20;;;;;;5114274;28;20437;-75
2022/04/19 13:24:57;;;;;;;5.03;4.30;;;24.70;88.30;;;;;;5117216;28;20071;-76